sensor_id;sensor_type;location;lat;lon;timestamp;P1;durP1;ratioP1;P2;durP2;ratioP2
12088;SDS011;6107;49.078;8.578;2023-11-18T00:01:48;13.25;;;5.95;;
12088;SDS011;6107;49.078;8.578;2023-11-18T00:04:14;17.10;;;8.05;;
12088;SDS011;6107;49.078;8.578;2023-11-18T00:06:42;15.50;;;7.10;;
12088;SDS011;6107;49.078;8.578;2023-11-18T00:09:12;14.18;;;7.80;;
12088;SDS011;6107;49.078;8.578;2023-11-18T00:11:38;16.10;;;6.97;;
12088;SDS011;6107;49.078;8.578;2023-11-18T00:14:05;13.38;;;7.35;;
12088;SDS011;6107;49.078;8.578;2023-11-18T00:16:30;16.75;;;7.45;;
12088;SDS011;6107;49.078;8.578;2023-11-18T00:18:56;16.20;;;8.20;;
12088;SDS011;6107;49.078;8.578;2023-11-18T00:21:24;15.90;;;8.52;;
12088;SDS011;6107;49.078;8.578;2023-11-18T00:23:49;17.35;;;7.70;;
12088;SDS011;6107;49.078;8.578;2023-11-18T00:26:15;13.32;;;6.70;;
12088;SDS011;6107;49.078;8.578;2023-11-18T00:28:41;17.33;;;7.65;;
12088;SDS011;6107;49.078;8.578;2023-11-18T00:31:07;15.27;;;6.60;;
12088;SDS011;6107;49.078;8.578;2023-11-18T00:33:32;22.05;;;7.32;;
12088;SDS011;6107;49.078;8.578;2023-11-18T00:35:58;21.90;;;8.35;;
12088;SDS011;6107;49.078;8.578;2023-11-18T00:38:25;19.40;;;8.48;;
12088;SDS011;6107;49.078;8.578;2023-11-18T00:40:51;15.13;;;7.07;;
12088;SDS011;6107;49.078;8.578;2023-11-18T00:43:17;13.25;;;6.95;;
12088;SDS011;6107;49.078;8.578;2023-11-18T00:45:42;13.88;;;8.00;;
12088;SDS011;6107;49.078;8.578;2023-11-18T00:48:08;17.10;;;8.10;;
12088;SDS011;6107;49.078;8.578;2023-11-18T00:50:34;20.52;;;8.00;;
12088;SDS011;6107;49.078;8.578;2023-11-18T00:53:00;17.35;;;8.02;;
12088;SDS011;6107;49.078;8.578;2023-11-18T00:55:26;20.02;;;8.05;;
12088;SDS011;6107;49.078;8.578;2023-11-18T00:57:51;14.60;;;7.38;;
12088;SDS011;6107;49.078;8.578;2023-11-18T01:00:18;14.60;;;7.00;;
12088;SDS011;6107;49.078;8.578;2023-11-18T01:02:46;24.33;;;7.85;;
12088;SDS011;6107;49.078;8.578;2023-11-18T01:05:14;14.68;;;6.78;;
12088;SDS011;6107;49.078;8.578;2023-11-18T01:07:40;14.13;;;7.43;;
12088;SDS011;6107;49.078;8.578;2023-11-18T01:10:07;15.15;;;6.93;;
12088;SDS011;6107;49.078;8.578;2023-11-18T01:12:34;11.30;;;7.05;;
12088;SDS011;6107;49.078;8.578;2023-11-18T01:15:00;18.55;;;7.90;;
12088;SDS011;6107;49.078;8.578;2023-11-18T01:17:27;15.98;;;7.28;;
12088;SDS011;6107;49.078;8.578;2023-11-18T01:19:54;13.73;;;6.60;;
12088;SDS011;6107;49.078;8.578;2023-11-18T01:22:20;31.48;;;7.88;;
12088;SDS011;6107;49.078;8.578;2023-11-18T01:24:46;15.43;;;8.05;;
12088;SDS011;6107;49.078;8.578;2023-11-18T01:27:12;13.68;;;7.68;;
12088;SDS011;6107;49.078;8.578;2023-11-18T01:29:38;13.25;;;7.00;;
12088;SDS011;6107;49.078;8.578;2023-11-18T01:32:04;14.85;;;6.90;;
12088;SDS011;6107;49.078;8.578;2023-11-18T01:34:34;16.02;;;7.25;;
12088;SDS011;6107;49.078;8.578;2023-11-18T01:37:01;15.65;;;7.85;;
12088;SDS011;6107;49.078;8.578;2023-11-18T01:39:27;17.42;;;7.90;;
12088;SDS011;6107;49.078;8.578;2023-11-18T01:41:53;15.93;;;8.38;;
12088;SDS011;6107;49.078;8.578;2023-11-18T01:44:20;15.68;;;7.32;;
12088;SDS011;6107;49.078;8.578;2023-11-18T01:46:48;11.43;;;7.13;;
12088;SDS011;6107;49.078;8.578;2023-11-18T01:49:15;13.80;;;6.78;;
12088;SDS011;6107;49.078;8.578;2023-11-18T01:51:43;14.45;;;6.68;;
12088;SDS011;6107;49.078;8.578;2023-11-18T01:54:10;16.55;;;8.65;;
12088;SDS011;6107;49.078;8.578;2023-11-18T01:56:42;13.82;;;7.35;;
12088;SDS011;6107;49.078;8.578;2023-11-18T01:59:11;15.00;;;6.55;;
12088;SDS011;6107;49.078;8.578;2023-11-18T02:01:43;21.25;;;6.50;;
12088;SDS011;6107;49.078;8.578;2023-11-18T02:04:13;13.93;;;7.05;;
12088;SDS011;6107;49.078;8.578;2023-11-18T02:06:40;13.25;;;7.10;;
12088;SDS011;6107;49.078;8.578;2023-11-18T02:09:06;12.73;;;6.18;;
12088;SDS011;6107;49.078;8.578;2023-11-18T02:11:36;20.42;;;5.53;;
12088;SDS011;6107;49.078;8.578;2023-11-18T02:14:06;12.75;;;7.10;;
12088;SDS011;6107;49.078;8.578;2023-11-18T02:16:36;14.80;;;6.47;;
12088;SDS011;6107;49.078;8.578;2023-11-18T02:19:03;13.90;;;7.28;;
12088;SDS011;6107;49.078;8.578;2023-11-18T02:21:34;15.35;;;7.63;;
12088;SDS011;6107;49.078;8.578;2023-11-18T02:24:02;16.90;;;5.85;;
12088;SDS011;6107;49.078;8.578;2023-11-18T02:26:29;14.20;;;6.25;;
12088;SDS011;6107;49.078;8.578;2023-11-18T02:28:55;15.15;;;7.28;;
12088;SDS011;6107;49.078;8.578;2023-11-18T02:31:22;14.05;;;7.03;;
12088;SDS011;6107;49.078;8.578;2023-11-18T02:34:00;15.13;;;7.72;;
12088;SDS011;6107;49.078;8.578;2023-11-18T02:36:41;13.80;;;6.85;;
12088;SDS011;6107;49.078;8.578;2023-11-18T02:39:12;18.58;;;7.38;;
12088;SDS011;6107;49.078;8.578;2023-11-18T02:41:42;17.85;;;6.90;;
12088;SDS011;6107;49.078;8.578;2023-11-18T02:44:11;16.63;;;7.65;;
12088;SDS011;6107;49.078;8.578;2023-11-18T02:46:42;15.90;;;7.03;;
12088;SDS011;6107;49.078;8.578;2023-11-18T02:49:08;17.33;;;7.30;;
12088;SDS011;6107;49.078;8.578;2023-11-18T02:51:34;18.17;;;7.65;;
12088;SDS011;6107;49.078;8.578;2023-11-18T02:54:04;17.80;;;7.63;;
12088;SDS011;6107;49.078;8.578;2023-11-18T02:56:31;25.23;;;7.63;;
12088;SDS011;6107;49.078;8.578;2023-11-18T02:58:57;19.25;;;7.35;;
12088;SDS011;6107;49.078;8.578;2023-11-18T03:01:23;19.83;;;6.70;;
12088;SDS011;6107;49.078;8.578;2023-11-18T03:03:50;16.90;;;7.28;;
12088;SDS011;6107;49.078;8.578;2023-11-18T03:06:16;14.38;;;7.45;;
12088;SDS011;6107;49.078;8.578;2023-11-18T03:08:41;16.50;;;7.22;;
12088;SDS011;6107;49.078;8.578;2023-11-18T03:11:07;11.98;;;6.10;;
12088;SDS011;6107;49.078;8.578;2023-11-18T03:13:34;17.30;;;7.05;;
12088;SDS011;6107;49.078;8.578;2023-11-18T03:16:00;10.57;;;5.63;;
12088;SDS011;6107;49.078;8.578;2023-11-18T03:18:26;11.57;;;5.40;;
12088;SDS011;6107;49.078;8.578;2023-11-18T03:20:51;12.93;;;6.45;;
12088;SDS011;6107;49.078;8.578;2023-11-18T03:23:17;14.00;;;6.15;;
12088;SDS011;6107;49.078;8.578;2023-11-18T03:25:44;16.15;;;6.45;;
12088;SDS011;6107;49.078;8.578;2023-11-18T03:28:10;13.75;;;6.13;;
12088;SDS011;6107;49.078;8.578;2023-11-18T03:30:35;13.23;;;6.47;;
12088;SDS011;6107;49.078;8.578;2023-11-18T03:33:02;16.05;;;6.90;;
12088;SDS011;6107;49.078;8.578;2023-11-18T03:35:29;11.15;;;6.25;;
12088;SDS011;6107;49.078;8.578;2023-11-18T03:37:55;13.95;;;6.22;;
12088;SDS011;6107;49.078;8.578;2023-11-18T03:40:20;12.90;;;5.60;;
12088;SDS011;6107;49.078;8.578;2023-11-18T03:42:46;12.38;;;5.95;;
12088;SDS011;6107;49.078;8.578;2023-11-18T03:45:12;12.18;;;5.90;;
12088;SDS011;6107;49.078;8.578;2023-11-18T03:47:40;12.55;;;6.63;;
12088;SDS011;6107;49.078;8.578;2023-11-18T03:50:06;14.15;;;5.95;;
12088;SDS011;6107;49.078;8.578;2023-11-18T03:52:33;11.77;;;5.75;;
12088;SDS011;6107;49.078;8.578;2023-11-18T03:55:02;11.15;;;5.22;;
12088;SDS011;6107;49.078;8.578;2023-11-18T03:57:29;11.60;;;5.28;;
12088;SDS011;6107;49.078;8.578;2023-11-18T03:59:55;12.68;;;6.10;;
12088;SDS011;6107;49.078;8.578;2023-11-18T04:02:20;16.42;;;6.82;;
12088;SDS011;6107;49.078;8.578;2023-11-18T04:04:46;13.60;;;6.85;;
12088;SDS011;6107;49.078;8.578;2023-11-18T04:07:13;15.52;;;6.60;;
12088;SDS011;6107;49.078;8.578;2023-11-18T04:09:38;16.17;;;7.28;;
12088;SDS011;6107;49.078;8.578;2023-11-18T04:12:06;24.90;;;8.60;;
12088;SDS011;6107;49.078;8.578;2023-11-18T04:14:32;23.02;;;7.03;;
12088;SDS011;6107;49.078;8.578;2023-11-18T04:16:58;15.15;;;7.43;;
12088;SDS011;6107;49.078;8.578;2023-11-18T04:19:24;16.92;;;7.65;;
12088;SDS011;6107;49.078;8.578;2023-11-18T04:21:51;15.27;;;6.72;;
12088;SDS011;6107;49.078;8.578;2023-11-18T04:24:16;17.65;;;7.45;;
12088;SDS011;6107;49.078;8.578;2023-11-18T04:26:42;15.23;;;6.55;;
12088;SDS011;6107;49.078;8.578;2023-11-18T04:29:08;13.70;;;7.38;;
12088;SDS011;6107;49.078;8.578;2023-11-18T04:31:33;13.27;;;6.70;;
12088;SDS011;6107;49.078;8.578;2023-11-18T04:33:59;15.90;;;6.30;;
12088;SDS011;6107;49.078;8.578;2023-11-18T04:36:25;24.90;;;7.40;;
12088;SDS011;6107;49.078;8.578;2023-11-18T04:38:51;15.73;;;6.63;;
12088;SDS011;6107;49.078;8.578;2023-11-18T04:41:17;12.90;;;6.50;;
12088;SDS011;6107;49.078;8.578;2023-11-18T04:43:43;14.05;;;6.88;;
12088;SDS011;6107;49.078;8.578;2023-11-18T04:46:08;15.10;;;6.95;;
12088;SDS011;6107;49.078;8.578;2023-11-18T04:48:35;14.63;;;6.55;;
12088;SDS011;6107;49.078;8.578;2023-11-18T04:51:01;11.05;;;6.03;;
12088;SDS011;6107;49.078;8.578;2023-11-18T04:53:27;13.10;;;6.25;;
12088;SDS011;6107;49.078;8.578;2023-11-18T04:55:53;14.95;;;7.40;;
12088;SDS011;6107;49.078;8.578;2023-11-18T04:58:18;15.75;;;7.68;;
12088;SDS011;6107;49.078;8.578;2023-11-18T05:00:44;17.05;;;7.68;;
12088;SDS011;6107;49.078;8.578;2023-11-18T05:03:09;13.32;;;6.75;;
12088;SDS011;6107;49.078;8.578;2023-11-18T05:05:39;15.73;;;7.35;;
12088;SDS011;6107;49.078;8.578;2023-11-18T05:08:06;14.13;;;6.85;;
12088;SDS011;6107;49.078;8.578;2023-11-18T05:10:33;15.68;;;7.05;;
12088;SDS011;6107;49.078;8.578;2023-11-18T05:12:59;17.27;;;8.20;;
12088;SDS011;6107;49.078;8.578;2023-11-18T05:15:25;18.70;;;7.03;;
12088;SDS011;6107;49.078;8.578;2023-11-18T05:17:51;16.83;;;6.70;;
12088;SDS011;6107;49.078;8.578;2023-11-18T05:20:17;11.18;;;6.78;;
12088;SDS011;6107;49.078;8.578;2023-11-18T05:22:42;10.20;;;5.95;;
12088;SDS011;6107;49.078;8.578;2023-11-18T05:25:09;14.93;;;7.38;;
12088;SDS011;6107;49.078;8.578;2023-11-18T05:27:35;17.08;;;6.53;;
12088;SDS011;6107;49.078;8.578;2023-11-18T05:30:01;17.92;;;7.55;;
12088;SDS011;6107;49.078;8.578;2023-11-18T05:32:27;12.80;;;6.63;;
12088;SDS011;6107;49.078;8.578;2023-11-18T05:34:53;14.25;;;6.95;;
12088;SDS011;6107;49.078;8.578;2023-11-18T05:37:20;15.50;;;7.30;;
12088;SDS011;6107;49.078;8.578;2023-11-18T05:39:46;15.05;;;6.50;;
12088;SDS011;6107;49.078;8.578;2023-11-18T05:42:14;14.85;;;6.97;;
12088;SDS011;6107;49.078;8.578;2023-11-18T05:44:40;14.40;;;6.85;;
12088;SDS011;6107;49.078;8.578;2023-11-18T05:47:07;23.00;;;8.15;;
12088;SDS011;6107;49.078;8.578;2023-11-18T05:49:36;17.55;;;8.18;;
12088;SDS011;6107;49.078;8.578;2023-11-18T05:52:03;16.70;;;7.45;;
12088;SDS011;6107;49.078;8.578;2023-11-18T05:54:30;16.67;;;7.25;;
12088;SDS011;6107;49.078;8.578;2023-11-18T05:56:55;14.43;;;7.40;;
12088;SDS011;6107;49.078;8.578;2023-11-18T05:59:24;14.05;;;7.65;;
12088;SDS011;6107;49.078;8.578;2023-11-18T06:01:51;16.63;;;7.43;;
12088;SDS011;6107;49.078;8.578;2023-11-18T06:04:17;16.00;;;7.20;;
12088;SDS011;6107;49.078;8.578;2023-11-18T06:06:43;17.98;;;8.88;;
12088;SDS011;6107;49.078;8.578;2023-11-18T06:09:08;17.10;;;8.30;;
12088;SDS011;6107;49.078;8.578;2023-11-18T06:11:42;13.52;;;6.50;;
12088;SDS011;6107;49.078;8.578;2023-11-18T06:14:09;15.85;;;6.85;;
12088;SDS011;6107;49.078;8.578;2023-11-18T06:16:37;16.15;;;7.70;;
12088;SDS011;6107;49.078;8.578;2023-11-18T06:19:04;14.18;;;6.25;;
12088;SDS011;6107;49.078;8.578;2023-11-18T06:21:31;14.50;;;6.70;;
12088;SDS011;6107;49.078;8.578;2023-11-18T06:23:57;13.23;;;6.38;;
12088;SDS011;6107;49.078;8.578;2023-11-18T06:26:23;15.50;;;7.40;;
12088;SDS011;6107;49.078;8.578;2023-11-18T06:28:52;11.48;;;5.45;;
12088;SDS011;6107;49.078;8.578;2023-11-18T06:31:19;15.93;;;7.32;;
12088;SDS011;6107;49.078;8.578;2023-11-18T06:33:46;16.13;;;7.20;;
12088;SDS011;6107;49.078;8.578;2023-11-18T06:38:42;13.82;;;7.10;;
12088;SDS011;6107;49.078;8.578;2023-11-18T06:41:11;13.25;;;6.78;;
12088;SDS011;6107;49.078;8.578;2023-11-18T06:43:39;12.32;;;6.78;;
12088;SDS011;6107;49.078;8.578;2023-11-18T06:46:21;16.73;;;6.43;;
12088;SDS011;6107;49.078;8.578;2023-11-18T06:48:53;17.45;;;7.22;;
12088;SDS011;6107;49.078;8.578;2023-11-18T06:51:23;17.60;;;6.93;;
12088;SDS011;6107;49.078;8.578;2023-11-18T06:53:55;12.63;;;7.15;;
12088;SDS011;6107;49.078;8.578;2023-11-18T06:56:22;12.68;;;5.50;;
12088;SDS011;6107;49.078;8.578;2023-11-18T06:58:48;15.63;;;6.50;;
12088;SDS011;6107;49.078;8.578;2023-11-18T07:01:14;13.50;;;6.55;;
12088;SDS011;6107;49.078;8.578;2023-11-18T07:03:41;9.52;;;5.25;;
12088;SDS011;6107;49.078;8.578;2023-11-18T07:06:07;15.15;;;6.53;;
12088;SDS011;6107;49.078;8.578;2023-11-18T07:08:34;14.52;;;7.05;;
12088;SDS011;6107;49.078;8.578;2023-11-18T07:11:00;19.40;;;8.10;;
12088;SDS011;6107;49.078;8.578;2023-11-18T07:13:27;15.63;;;6.05;;
12088;SDS011;6107;49.078;8.578;2023-11-18T07:15:53;15.55;;;6.15;;
12088;SDS011;6107;49.078;8.578;2023-11-18T07:18:21;12.93;;;6.63;;
12088;SDS011;6107;49.078;8.578;2023-11-18T07:20:50;15.38;;;7.93;;
12088;SDS011;6107;49.078;8.578;2023-11-18T07:23:19;21.02;;;9.82;;
12088;SDS011;6107;49.078;8.578;2023-11-18T07:25:45;13.43;;;6.55;;
12088;SDS011;6107;49.078;8.578;2023-11-18T07:28:11;15.90;;;6.97;;
12088;SDS011;6107;49.078;8.578;2023-11-18T07:30:39;13.95;;;6.78;;
12088;SDS011;6107;49.078;8.578;2023-11-18T07:33:08;13.82;;;6.05;;
12088;SDS011;6107;49.078;8.578;2023-11-18T07:35:34;12.05;;;6.07;;
12088;SDS011;6107;49.078;8.578;2023-11-18T07:38:04;10.18;;;6.13;;
12088;SDS011;6107;49.078;8.578;2023-11-18T07:40:32;14.20;;;6.28;;
12088;SDS011;6107;49.078;8.578;2023-11-18T07:42:58;8.85;;;4.90;;
12088;SDS011;6107;49.078;8.578;2023-11-18T07:45:27;10.40;;;5.53;;
12088;SDS011;6107;49.078;8.578;2023-11-18T07:47:54;14.40;;;5.47;;
12088;SDS011;6107;49.078;8.578;2023-11-18T07:50:20;10.55;;;5.53;;
12088;SDS011;6107;49.078;8.578;2023-11-18T07:52:49;11.73;;;5.53;;
12088;SDS011;6107;49.078;8.578;2023-11-18T07:55:15;10.02;;;5.25;;
12088;SDS011;6107;49.078;8.578;2023-11-18T07:57:41;8.70;;;4.25;;
12088;SDS011;6107;49.078;8.578;2023-11-18T08:00:07;14.40;;;5.65;;
12088;SDS011;6107;49.078;8.578;2023-11-18T08:02:37;9.85;;;4.97;;
12088;SDS011;6107;49.078;8.578;2023-11-18T08:05:04;7.25;;;3.88;;
12088;SDS011;6107;49.078;8.578;2023-11-18T08:07:34;7.38;;;4.32;;
12088;SDS011;6107;49.078;8.578;2023-11-18T08:10:00;9.60;;;4.18;;
12088;SDS011;6107;49.078;8.578;2023-11-18T08:12:29;8.32;;;4.47;;
12088;SDS011;6107;49.078;8.578;2023-11-18T08:14:59;12.40;;;4.55;;
12088;SDS011;6107;49.078;8.578;2023-11-18T08:17:25;7.70;;;3.83;;
12088;SDS011;6107;49.078;8.578;2023-11-18T08:19:51;10.13;;;3.33;;
12088;SDS011;6107;49.078;8.578;2023-11-18T08:22:17;10.68;;;4.40;;
12088;SDS011;6107;49.078;8.578;2023-11-18T08:24:44;10.35;;;4.68;;
12088;SDS011;6107;49.078;8.578;2023-11-18T08:27:10;16.10;;;4.50;;
12088;SDS011;6107;49.078;8.578;2023-11-18T08:29:36;13.88;;;5.80;;
12088;SDS011;6107;49.078;8.578;2023-11-18T08:32:03;12.00;;;4.95;;
12088;SDS011;6107;49.078;8.578;2023-11-18T08:34:30;10.60;;;4.40;;
12088;SDS011;6107;49.078;8.578;2023-11-18T08:36:58;7.80;;;3.13;;
12088;SDS011;6107;49.078;8.578;2023-11-18T08:39:24;15.07;;;2.72;;
12088;SDS011;6107;49.078;8.578;2023-11-18T08:41:51;4.38;;;2.45;;
12088;SDS011;6107;49.078;8.578;2023-11-18T08:44:17;4.47;;;2.40;;
12088;SDS011;6107;49.078;8.578;2023-11-18T08:46:43;2.70;;;2.00;;
12088;SDS011;6107;49.078;8.578;2023-11-18T08:49:09;5.03;;;2.00;;
12088;SDS011;6107;49.078;8.578;2023-11-18T08:51:36;3.67;;;1.88;;
12088;SDS011;6107;49.078;8.578;2023-11-18T08:54:04;4.03;;;1.38;;
12088;SDS011;6107;49.078;8.578;2023-11-18T08:56:47;1.90;;;1.05;;
12088;SDS011;6107;49.078;8.578;2023-11-18T08:59:16;1.60;;;1.20;;
12088;SDS011;6107;49.078;8.578;2023-11-18T09:01:42;15.32;;;1.83;;
12088;SDS011;6107;49.078;8.578;2023-11-18T09:04:08;1.98;;;1.10;;
12088;SDS011;6107;49.078;8.578;2023-11-18T09:06:35;3.55;;;1.42;;
12088;SDS011;6107;49.078;8.578;2023-11-18T09:09:01;2.28;;;1.35;;
12088;SDS011;6107;49.078;8.578;2023-11-18T09:11:31;3.10;;;1.60;;
12088;SDS011;6107;49.078;8.578;2023-11-18T09:13:58;2.65;;;1.65;;
12088;SDS011;6107;49.078;8.578;2023-11-18T09:16:25;3.20;;;1.50;;
12088;SDS011;6107;49.078;8.578;2023-11-18T09:18:54;1.73;;;1.40;;
12088;SDS011;6107;49.078;8.578;2023-11-18T09:21:21;2.85;;;1.70;;
12088;SDS011;6107;49.078;8.578;2023-11-18T09:23:54;2.57;;;1.30;;
12088;SDS011;6107;49.078;8.578;2023-11-18T09:26:21;1.95;;;1.10;;
12088;SDS011;6107;49.078;8.578;2023-11-18T09:28:47;1.67;;;1.23;;
12088;SDS011;6107;49.078;8.578;2023-11-18T09:31:15;3.97;;;1.23;;
12088;SDS011;6107;49.078;8.578;2023-11-18T09:33:42;3.67;;;2.00;;
12088;SDS011;6107;49.078;8.578;2023-11-18T09:36:17;1.48;;;1.17;;
12088;SDS011;6107;49.078;8.578;2023-11-18T09:38:43;1.92;;;1.13;;
12088;SDS011;6107;49.078;8.578;2023-11-18T09:41:11;4.07;;;1.92;;
12088;SDS011;6107;49.078;8.578;2023-11-18T09:43:38;6.10;;;1.10;;
12088;SDS011;6107;49.078;8.578;2023-11-18T09:46:11;2.42;;;1.00;;
12088;SDS011;6107;49.078;8.578;2023-11-18T09:48:45;1.95;;;1.10;;
12088;SDS011;6107;49.078;8.578;2023-11-18T09:51:21;9.00;;;3.03;;
12088;SDS011;6107;49.078;8.578;2023-11-18T09:53:49;3.55;;;1.65;;
12088;SDS011;6107;49.078;8.578;2023-11-18T09:59:06;5.20;;;1.10;;
12088;SDS011;6107;49.078;8.578;2023-11-18T10:01:40;3.60;;;1.33;;
12088;SDS011;6107;49.078;8.578;2023-11-18T10:04:09;2.42;;;1.08;;
12088;SDS011;6107;49.078;8.578;2023-11-18T10:06:36;7.05;;;1.13;;
12088;SDS011;6107;49.078;8.578;2023-11-18T10:09:06;1.67;;;1.20;;
12088;SDS011;6107;49.078;8.578;2023-11-18T10:11:42;3.28;;;1.30;;
12088;SDS011;6107;49.078;8.578;2023-11-18T10:14:08;4.20;;;1.35;;
12088;SDS011;6107;49.078;8.578;2023-11-18T10:16:35;3.40;;;1.70;;
12088;SDS011;6107;49.078;8.578;2023-11-18T10:19:03;7.97;;;1.77;;
12088;SDS011;6107;49.078;8.578;2023-11-18T10:21:36;4.10;;;2.00;;
12088;SDS011;6107;49.078;8.578;2023-11-18T10:24:05;2.13;;;1.48;;
12088;SDS011;6107;49.078;8.578;2023-11-18T10:26:37;3.92;;;2.08;;
12088;SDS011;6107;49.078;8.578;2023-11-18T10:29:03;2.15;;;1.73;;
12088;SDS011;6107;49.078;8.578;2023-11-18T10:31:32;3.85;;;1.52;;
12088;SDS011;6107;49.078;8.578;2023-11-18T10:34:00;8.63;;;1.88;;
12088;SDS011;6107;49.078;8.578;2023-11-18T10:36:29;4.28;;;1.35;;
12088;SDS011;6107;49.078;8.578;2023-11-18T10:38:58;1.63;;;0.85;;
12088;SDS011;6107;49.078;8.578;2023-11-18T10:41:25;2.85;;;1.10;;
12088;SDS011;6107;49.078;8.578;2023-11-18T10:44:06;9.18;;;2.85;;
12088;SDS011;6107;49.078;8.578;2023-11-18T10:46:35;11.20;;;3.53;;
12088;SDS011;6107;49.078;8.578;2023-11-18T10:49:01;5.30;;;2.35;;
12088;SDS011;6107;49.078;8.578;2023-11-18T10:51:27;5.72;;;2.00;;
12088;SDS011;6107;49.078;8.578;2023-11-18T10:53:55;3.75;;;1.50;;
12088;SDS011;6107;49.078;8.578;2023-11-18T10:56:23;2.55;;;1.30;;
12088;SDS011;6107;49.078;8.578;2023-11-18T10:58:55;6.00;;;1.15;;
12088;SDS011;6107;49.078;8.578;2023-11-18T11:01:30;2.70;;;1.10;;
12088;SDS011;6107;49.078;8.578;2023-11-18T11:03:59;4.07;;;1.00;;
12088;SDS011;6107;49.078;8.578;2023-11-18T11:06:29;2.45;;;1.20;;
12088;SDS011;6107;49.078;8.578;2023-11-18T11:08:56;4.50;;;1.20;;
12088;SDS011;6107;49.078;8.578;2023-11-18T11:11:25;1.15;;;0.70;;
12088;SDS011;6107;49.078;8.578;2023-11-18T11:13:58;0.60;;;0.60;;
12088;SDS011;6107;49.078;8.578;2023-11-18T11:16:31;24.42;;;2.03;;
12088;SDS011;6107;49.078;8.578;2023-11-18T11:19:00;7.10;;;1.48;;
12088;SDS011;6107;49.078;8.578;2023-11-18T11:24:06;1.17;;;0.80;;
12088;SDS011;6107;49.078;8.578;2023-11-18T11:32:02;2.17;;;1.27;;
12088;SDS011;6107;49.078;8.578;2023-11-18T11:34:37;7.18;;;2.35;;
12088;SDS011;6107;49.078;8.578;2023-11-18T11:37:07;8.07;;;1.85;;
12088;SDS011;6107;49.078;8.578;2023-11-18T11:39:34;5.95;;;2.58;;
12088;SDS011;6107;49.078;8.578;2023-11-18T11:42:02;6.70;;;2.85;;
12088;SDS011;6107;49.078;8.578;2023-11-18T11:44:29;6.20;;;3.05;;
12088;SDS011;6107;49.078;8.578;2023-11-18T11:46:56;8.10;;;3.75;;
12088;SDS011;6107;49.078;8.578;2023-11-18T11:49:25;4.60;;;2.80;;
12088;SDS011;6107;49.078;8.578;2023-11-18T11:54:25;7.70;;;3.17;;
12088;SDS011;6107;49.078;8.578;2023-11-18T11:56:55;6.82;;;2.83;;
12088;SDS011;6107;49.078;8.578;2023-11-18T12:02:17;4.57;;;2.03;;
12088;SDS011;6107;49.078;8.578;2023-11-18T12:04:49;7.15;;;1.65;;
12088;SDS011;6107;49.078;8.578;2023-11-18T12:07:19;2.80;;;1.80;;
12088;SDS011;6107;49.078;8.578;2023-11-18T12:09:48;4.63;;;2.30;;
12088;SDS011;6107;49.078;8.578;2023-11-18T12:12:19;4.88;;;1.50;;
12088;SDS011;6107;49.078;8.578;2023-11-18T12:14:52;4.53;;;1.80;;
12088;SDS011;6107;49.078;8.578;2023-11-18T12:17:21;1.92;;;1.45;;
12088;SDS011;6107;49.078;8.578;2023-11-18T12:19:50;3.75;;;2.22;;
12088;SDS011;6107;49.078;8.578;2023-11-18T12:22:23;5.47;;;1.75;;
12088;SDS011;6107;49.078;8.578;2023-11-18T12:30:05;7.57;;;1.73;;
12088;SDS011;6107;49.078;8.578;2023-11-18T12:33:01;7.53;;;2.25;;
12088;SDS011;6107;49.078;8.578;2023-11-18T12:40:56;6.57;;;1.92;;
12088;SDS011;6107;49.078;8.578;2023-11-18T12:43:46;2.72;;;1.38;;
12088;SDS011;6107;49.078;8.578;2023-11-18T12:46:32;5.25;;;2.30;;
12088;SDS011;6107;49.078;8.578;2023-11-18T12:49:07;4.50;;;2.03;;
12088;SDS011;6107;49.078;8.578;2023-11-18T12:51:40;4.70;;;1.60;;
12088;SDS011;6107;49.078;8.578;2023-11-18T12:54:08;5.90;;;3.53;;
12088;SDS011;6107;49.078;8.578;2023-11-18T12:56:37;7.53;;;3.05;;
12088;SDS011;6107;49.078;8.578;2023-11-18T12:59:04;5.65;;;1.92;;
12088;SDS011;6107;49.078;8.578;2023-11-18T13:01:32;3.15;;;1.67;;
12088;SDS011;6107;49.078;8.578;2023-11-18T13:04:01;3.38;;;1.73;;
12088;SDS011;6107;49.078;8.578;2023-11-18T13:06:27;9.75;;;1.50;;
12088;SDS011;6107;49.078;8.578;2023-11-18T13:08:53;8.23;;;2.05;;
12088;SDS011;6107;49.078;8.578;2023-11-18T13:11:21;7.00;;;3.10;;
12088;SDS011;6107;49.078;8.578;2023-11-18T13:13:49;7.50;;;3.75;;
12088;SDS011;6107;49.078;8.578;2023-11-18T13:16:15;6.32;;;3.28;;
12088;SDS011;6107;49.078;8.578;2023-11-18T13:18:41;11.30;;;5.03;;
12088;SDS011;6107;49.078;8.578;2023-11-18T13:21:12;5.40;;;3.30;;
12088;SDS011;6107;49.078;8.578;2023-11-18T13:23:38;11.68;;;2.38;;
12088;SDS011;6107;49.078;8.578;2023-11-18T13:26:04;4.20;;;2.50;;
12088;SDS011;6107;49.078;8.578;2023-11-18T13:28:31;5.40;;;2.42;;
12088;SDS011;6107;49.078;8.578;2023-11-18T13:30:58;4.15;;;2.47;;
12088;SDS011;6107;49.078;8.578;2023-11-18T13:33:24;4.22;;;3.05;;
12088;SDS011;6107;49.078;8.578;2023-11-18T13:35:50;11.90;;;6.20;;
12088;SDS011;6107;49.078;8.578;2023-11-18T13:38:16;12.45;;;5.32;;
12088;SDS011;6107;49.078;8.578;2023-11-18T13:40:46;9.80;;;5.30;;
12088;SDS011;6107;49.078;8.578;2023-11-18T13:43:14;7.65;;;4.60;;
12088;SDS011;6107;49.078;8.578;2023-11-18T13:45:41;7.68;;;3.45;;
12088;SDS011;6107;49.078;8.578;2023-11-18T13:48:07;8.27;;;3.40;;
12088;SDS011;6107;49.078;8.578;2023-11-18T13:50:34;5.75;;;2.80;;
12088;SDS011;6107;49.078;8.578;2023-11-18T13:53:04;9.70;;;3.53;;
12088;SDS011;6107;49.078;8.578;2023-11-18T13:55:33;6.00;;;3.03;;
12088;SDS011;6107;49.078;8.578;2023-11-18T13:58:00;4.05;;;1.95;;
12088;SDS011;6107;49.078;8.578;2023-11-18T14:00:30;7.63;;;2.25;;
12088;SDS011;6107;49.078;8.578;2023-11-18T14:02:57;5.25;;;2.90;;
12088;SDS011;6107;49.078;8.578;2023-11-18T14:05:24;4.50;;;1.90;;
12088;SDS011;6107;49.078;8.578;2023-11-18T14:07:53;9.80;;;2.72;;
12088;SDS011;6107;49.078;8.578;2023-11-18T14:10:33;2.15;;;1.38;;
12088;SDS011;6107;49.078;8.578;2023-11-18T14:13:03;5.07;;;1.77;;
12088;SDS011;6107;49.078;8.578;2023-11-18T14:15:37;4.40;;;2.00;;
12088;SDS011;6107;49.078;8.578;2023-11-18T14:18:05;3.15;;;1.80;;
12088;SDS011;6107;49.078;8.578;2023-11-18T14:20:34;4.03;;;2.08;;
12088;SDS011;6107;49.078;8.578;2023-11-18T14:23:00;3.45;;;2.17;;
12088;SDS011;6107;49.078;8.578;2023-11-18T14:25:28;3.60;;;2.17;;
12088;SDS011;6107;49.078;8.578;2023-11-18T14:27:54;3.22;;;1.90;;
12088;SDS011;6107;49.078;8.578;2023-11-18T14:30:21;5.40;;;1.80;;
12088;SDS011;6107;49.078;8.578;2023-11-18T14:32:49;3.85;;;1.50;;
12088;SDS011;6107;49.078;8.578;2023-11-18T14:35:15;2.88;;;1.55;;
12088;SDS011;6107;49.078;8.578;2023-11-18T14:37:45;7.22;;;4.20;;
12088;SDS011;6107;49.078;8.578;2023-11-18T14:40:11;3.95;;;2.67;;
12088;SDS011;6107;49.078;8.578;2023-11-18T14:42:47;3.78;;;1.95;;
12088;SDS011;6107;49.078;8.578;2023-11-18T14:45:13;5.00;;;2.25;;
12088;SDS011;6107;49.078;8.578;2023-11-18T14:47:40;3.95;;;2.05;;
12088;SDS011;6107;49.078;8.578;2023-11-18T14:50:06;9.98;;;1.80;;
12088;SDS011;6107;49.078;8.578;2023-11-18T14:52:41;2.10;;;1.30;;
12088;SDS011;6107;49.078;8.578;2023-11-18T14:55:07;4.15;;;1.48;;
12088;SDS011;6107;49.078;8.578;2023-11-18T14:57:40;1.92;;;1.30;;
12088;SDS011;6107;49.078;8.578;2023-11-18T15:00:09;10.18;;;2.35;;
12088;SDS011;6107;49.078;8.578;2023-11-18T15:02:44;3.55;;;1.48;;
12088;SDS011;6107;49.078;8.578;2023-11-18T15:05:11;6.38;;;1.90;;
12088;SDS011;6107;49.078;8.578;2023-11-18T15:07:37;2.42;;;1.42;;
12088;SDS011;6107;49.078;8.578;2023-11-18T15:10:03;3.17;;;1.70;;
12088;SDS011;6107;49.078;8.578;2023-11-18T15:12:31;5.07;;;2.13;;
12088;SDS011;6107;49.078;8.578;2023-11-18T15:14:57;3.85;;;1.38;;
12088;SDS011;6107;49.078;8.578;2023-11-18T15:17:24;6.28;;;2.75;;
12088;SDS011;6107;49.078;8.578;2023-11-18T15:19:51;37.40;;;12.68;;
12088;SDS011;6107;49.078;8.578;2023-11-18T15:22:18;12.93;;;3.63;;
12088;SDS011;6107;49.078;8.578;2023-11-18T15:24:44;7.57;;;2.10;;
12088;SDS011;6107;49.078;8.578;2023-11-18T15:27:10;4.85;;;2.35;;